sensor_id;sensor_type;location;lat;lon;timestamp;pressure;altitude;pressure_sealevel;temperature;humidity
66627;BME280;53498;50.422;14.912;2023-08-30T00:01:54;98068.59;;;14.83;100.00
66627;BME280;53498;50.422;14.912;2023-08-30T00:04:19;98075.78;;;15.03;100.00
66627;BME280;53498;50.422;14.912;2023-08-30T00:06:48;98082.91;;;14.45;100.00
66627;BME280;53498;50.422;14.912;2023-08-30T00:09:13;98104.81;;;14.41;100.00
66627;BME280;53498;50.422;14.912;2023-08-30T00:11:39;98098.91;;;14.64;100.00
66627;BME280;53498;50.422;14.912;2023-08-30T00:14:06;98104.41;;;14.26;100.00
66627;BME280;53498;50.422;14.912;2023-08-30T00:16:32;98097.63;;;14.19;100.00
66627;BME280;53498;50.422;14.912;2023-08-30T00:18:58;98098.72;;;14.12;100.00
66627;BME280;53498;50.422;14.912;2023-08-30T00:21:25;98091.69;;;14.97;100.00
66627;BME280;53498;50.422;14.912;2023-08-30T00:23:51;98086.81;;;15.13;100.00
66627;BME280;53498;50.422;14.912;2023-08-30T00:26:17;98087.22;;;14.74;100.00
66627;BME280;53498;50.422;14.912;2023-08-30T00:28:42;98092.50;;;14.44;100.00
66627;BME280;53498;50.422;14.912;2023-08-30T00:31:08;98091.19;;;14.59;100.00
66627;BME280;53498;50.422;14.912;2023-08-30T00:33:34;98088.06;;;14.46;100.00
66627;BME280;53498;50.422;14.912;2023-08-30T00:35:59;98080.41;;;14.40;100.00
66627;BME280;53498;50.422;14.912;2023-08-30T00:38:26;98066.53;;;14.66;100.00
66627;BME280;53498;50.422;14.912;2023-08-30T00:40:53;98055.66;;;15.05;100.00
66627;BME280;53498;50.422;14.912;2023-08-30T00:43:19;98055.38;;;15.13;100.00
66627;BME280;53498;50.422;14.912;2023-08-30T00:45:46;98055.69;;;15.28;100.00
66627;BME280;53498;50.422;14.912;2023-08-30T00:48:12;98056.41;;;14.82;100.00
66627;BME280;53498;50.422;14.912;2023-08-30T00:50:39;98057.09;;;14.89;100.00
66627;BME280;53498;50.422;14.912;2023-08-30T00:53:05;98048.94;;;14.96;100.00
66627;BME280;53498;50.422;14.912;2023-08-30T00:55:34;98045.41;;;14.97;100.00
66627;BME280;53498;50.422;14.912;2023-08-30T00:58:00;98058.06;;;15.36;100.00
66627;BME280;53498;50.422;14.912;2023-08-30T01:00:30;98059.06;;;15.32;100.00
66627;BME280;53498;50.422;14.912;2023-08-30T01:02:56;98058.59;;;15.21;100.00
66627;BME280;53498;50.422;14.912;2023-08-30T01:05:23;98059.81;;;15.11;100.00
66627;BME280;53498;50.422;14.912;2023-08-30T01:07:55;98063.28;;;14.86;100.00
66627;BME280;53498;50.422;14.912;2023-08-30T01:10:27;98060.91;;;15.03;100.00
66627;BME280;53498;50.422;14.912;2023-08-30T01:13:03;98047.16;;;14.98;100.00
66627;BME280;53498;50.422;14.912;2023-08-30T01:15:32;98036.44;;;15.55;100.00
66627;BME280;53498;50.422;14.912;2023-08-30T01:18:00;98039.31;;;15.72;100.00
66627;BME280;53498;50.422;14.912;2023-08-30T01:20:34;98040.28;;;15.44;100.00
66627;BME280;53498;50.422;14.912;2023-08-30T01:23:06;98039.81;;;15.08;100.00
66627;BME280;53498;50.422;14.912;2023-08-30T01:26:08;98039.66;;;15.13;100.00
66627;BME280;53498;50.422;14.912;2023-08-30T01:28:35;98034.84;;;15.25;100.00
66627;BME280;53498;50.422;14.912;2023-08-30T01:31:03;98031.75;;;14.89;100.00
66627;BME280;53498;50.422;14.912;2023-08-30T01:33:30;98034.88;;;14.74;100.00
66627;BME280;53498;50.422;14.912;2023-08-30T01:35:59;98046.19;;;14.74;100.00
66627;BME280;53498;50.422;14.912;2023-08-30T01:38:27;98050.97;;;14.62;100.00
66627;BME280;53498;50.422;14.912;2023-08-30T01:40:54;98050.06;;;14.63;100.00
